Time,TemperatureF,DewpointF,PressureIn,WindDirection,WindDirectionDegrees,WindSpeedMPH,WindSpeedGustMPH,Humidity,HourlyPrecipIn,Conditions,Clouds,dailyrainin,SoftwareType,DateUTC
2013-02-04 00:00:00,17.1,13.8,30.08,SE,145,3.0,5.0,87,0.00,,,0.00,meteohub,2013-02-04 06:00:00,
2013-02-04 00:06:00,17.1,13.8,30.08,SSE,155,3.0,5.0,87,0.00,,,0.00,meteohub,2013-02-04 06:06:00,
2013-02-04 00:11:00,17.1,14.2,30.08,SE,145,2.0,4.0,88,0.00,,,0.00,meteohub,2013-02-04 06:11:00,
2013-02-04 00:16:00,17.2,14.4,30.07,SSE,163,3.0,4.0,88,0.00,,,0.00,meteohub,2013-02-04 06:16:00,
2013-02-04 00:21:00,17.2,14.4,30.07,SSE,153,4.0,4.0,88,0.00,,,0.00,meteohub,2013-02-04 06:21:00,
2013-02-04 00:26:00,17.1,13.8,30.07,SSE,158,3.0,4.0,87,0.00,,,0.00,meteohub,2013-02-04 06:26:00,
2013-02-04 00:31:00,16.9,14.0,30.07,SSE,147,3.0,5.0,88,0.00,,,0.00,meteohub,2013-02-04 06:31:00,
2013-02-04 00:36:00,16.9,14.0,30.06,SSE,147,4.0,6.0,88,0.00,,,0.00,meteohub,2013-02-04 06:36:00,
2013-02-04 00:41:00,16.7,13.8,30.06,SSE,152,4.0,6.0,88,0.00,,,0.00,meteohub,2013-02-04 06:41:00,
2013-02-04 00:46:00,16.5,13.6,30.06,SSE,148,2.0,6.0,88,0.00,,,0.00,meteohub,2013-02-04 06:46:00,
2013-02-04 00:51:00,16.5,13.6,30.06,SSE,152,4.0,6.0,88,0.00,,,0.00,meteohub,2013-02-04 06:51:00,
2013-02-04 00:56:00,16.7,14.0,30.06,SSE,157,3.0,6.0,89,0.00,,,0.00,meteohub,2013-02-04 06:56:00,
2013-02-04 01:02:00,16.9,14.0,30.05,SE,138,5.0,6.0,88,0.00,,,0.00,meteohub,2013-02-04 07:02:00,
2013-02-04 01:07:00,16.9,14.5,30.05,SE,137,1.0,6.0,90,0.00,,,0.00,meteohub,2013-02-04 07:07:00,
2013-02-04 01:12:00,16.9,14.0,30.05,East,86,3.0,6.0,88,0.00,,,0.00,meteohub,2013-02-04 07:12:00,
2013-02-04 01:17:00,16.5,13.6,30.06,East,87,1.0,6.0,88,0.00,,,0.00,meteohub,2013-02-04 07:17:00,
2013-02-04 01:22:00,16.5,13.8,30.05,NNE,24,6.0,6.0,89,0.00,,,0.00,meteohub,2013-02-04 07:22:00,
2013-02-04 01:27:00,16.2,13.5,30.05,NE,36,5.0,7.0,89,0.00,,,0.00,meteohub,2013-02-04 07:27:00,
2013-02-04 01:32:00,16.0,13.3,30.05,NNE,22,6.0,7.0,89,0.00,,,0.00,meteohub,2013-02-04 07:32:00,
2013-02-04 01:37:00,16.0,13.6,30.05,NNE,12,1.0,8.0,90,0.00,,,0.00,meteohub,2013-02-04 07:37:00,
2013-02-04 01:42:00,16.2,13.8,30.04,ENE,77,3.0,8.0,90,0.00,,,0.00,meteohub,2013-02-04 07:42:00,
2013-02-04 01:47:00,16.2,13.8,30.04,SE,134,4.0,7.0,90,0.00,,,0.00,meteohub,2013-02-04 07:47:00,
2013-02-04 01:52:00,16.5,13.8,30.04,East,95,3.0,7.0,89,0.00,,,0.00,meteohub,2013-02-04 07:52:00,
2013-02-04 01:57:00,16.5,13.8,30.04,ENE,73,6.0,7.0,89,0.00,,,0.00,meteohub,2013-02-04 07:57:00,
2013-02-04 02:02:00,16.2,13.5,30.04,East,91,5.0,7.0,89,0.00,,,0.00,meteohub,2013-02-04 08:02:00,
2013-02-04 02:07:00,16.0,13.3,30.03,East,80,2.0,8.0,89,0.00,,,0.00,meteohub,2013-02-04 08:07:00,
2013-02-04 02:12:00,16.0,13.3,30.04,East,98,8.0,10.0,89,0.00,,,0.00,meteohub,2013-02-04 08:12:00,
2013-02-04 02:18:00,16.0,13.3,30.04,East,89,6.0,10.0,89,0.00,,,0.00,meteohub,2013-02-04 08:18:00,
2013-02-04 02:23:00,15.6,12.9,30.04,NE,52,2.0,10.0,89,0.00,,,0.00,meteohub,2013-02-04 08:23:00,
2013-02-04 02:28:00,16.0,13.6,30.04,East,89,2.0,11.0,90,0.00,,,0.00,meteohub,2013-02-04 08:28:00,
2013-02-04 02:33:00,16.2,13.5,30.04,East,97,10.0,11.0,89,0.00,,,0.00,meteohub,2013-02-04 08:33:00,
2013-02-04 02:38:00,16.0,13.3,30.04,ESE,111,6.0,12.0,89,0.00,,,0.00,meteohub,2013-02-04 08:38:00,
2013-02-04 02:43:00,16.0,13.3,30.03,NNE,22,5.0,12.0,89,0.00,,,0.00,meteohub,2013-02-04 08:43:00,
2013-02-04 02:48:00,16.0,13.3,30.03,NNW,331,2.0,12.0,89,0.00,,,0.00,meteohub,2013-02-04 08:48:00,
2013-02-04 02:53:00,16.0,13.3,30.02,East,81,4.0,7.0,89,0.00,,,0.00,meteohub,2013-02-04 08:53:00,
2013-02-04 02:58:00,15.6,12.7,30.02,East,81,8.0,8.0,88,0.00,,,0.00,meteohub,2013-02-04 08:58:00,
2013-02-04 03:03:00,15.6,12.9,30.03,NE,46,6.0,12.0,89,0.00,,,0.00,meteohub,2013-02-04 09:03:00,
2013-02-04 03:09:00,15.6,12.9,30.03,NNE,22,4.0,12.0,89,0.00,,,0.00,meteohub,2013-02-04 09:09:00,
2013-02-04 03:14:00,15.6,12.7,30.02,ENE,68,2.0,12.0,88,0.00,,,0.00,meteohub,2013-02-04 09:14:00,
2013-02-04 03:19:00,15.6,12.7,30.02,ENE,61,8.0,9.0,88,0.00,,,0.00,meteohub,2013-02-04 09:19:00,
2013-02-04 03:24:00,15.3,12.4,30.02,North,2,6.0,9.0,88,0.00,,,0.00,meteohub,2013-02-04 09:24:00,
2013-02-04 03:29:00,15.3,12.4,30.02,ENE,72,4.0,10.0,88,0.00,,,0.00,meteohub,2013-02-04 09:29:00,
2013-02-04 03:34:00,15.4,12.6,30.02,ENE,60,1.0,10.0,88,0.00,,,0.00,meteohub,2013-02-04 09:34:00,
2013-02-04 03:39:00,15.4,12.6,30.02,NNE,12,5.0,9.0,88,0.00,,,0.00,meteohub,2013-02-04 09:39:00,
2013-02-04 03:44:00,15.3,12.4,30.02,North,359,4.0,9.0,88,0.00,,,0.00,meteohub,2013-02-04 09:44:00,
2013-02-04 03:49:00,15.3,12.6,30.02,NE,47,4.0,8.0,89,0.00,,,0.00,meteohub,2013-02-04 09:49:00,
2013-02-04 03:54:00,15.3,12.4,30.01,East,84,10.0,10.0,88,0.00,,,0.00,meteohub,2013-02-04 09:54:00,
2013-02-04 04:00:00,15.1,12.4,30.01,ESE,122,4.0,9.0,89,0.00,,,0.00,meteohub,2013-02-04 10:00:00,
2013-02-04 04:05:00,15.3,12.4,30.01,ENE,77,4.0,12.0,88,0.00,,,0.00,meteohub,2013-02-04 10:05:00,
2013-02-04 04:10:00,15.3,12.4,30.01,NNE,26,2.0,11.0,88,0.00,,,0.00,meteohub,2013-02-04 10:10:00,
2013-02-04 04:15:00,15.3,12.4,30.01,NE,51,4.0,11.0,88,0.00,,,0.00,meteohub,2013-02-04 10:15:00,
2013-02-04 04:20:00,15.3,12.6,30.01,NE,51,4.0,11.0,89,0.00,,,0.00,meteohub,2013-02-04 10:20:00,
2013-02-04 04:25:00,15.4,12.7,30.02,ENE,76,1.0,11.0,89,0.00,,,0.00,meteohub,2013-02-04 10:25:00,
2013-02-04 04:30:00,15.3,12.6,30.01,NE,36,7.0,8.0,89,0.00,,,0.00,meteohub,2013-02-04 10:30:00,
2013-02-04 04:35:00,15.1,12.4,30.02,NE,37,6.0,9.0,89,0.00,,,0.00,meteohub,2013-02-04 10:35:00,
2013-02-04 04:40:00,14.7,12.0,30.02,NE,55,4.0,10.0,89,0.00,,,0.00,meteohub,2013-02-04 10:40:00,
2013-02-04 04:46:00,14.7,12.0,30.01,NNE,20,2.0,10.0,89,0.00,,,0.00,meteohub,2013-02-04 10:46:00,
2013-02-04 04:51:00,14.5,11.7,30.02,NE,36,8.0,10.0,88,0.00,,,0.00,meteohub,2013-02-04 10:51:00,
2013-02-04 04:56:00,14.4,11.5,30.02,North,3,4.0,10.0,88,0.00,,,0.00,meteohub,2013-02-04 10:56:00,
2013-02-04 05:01:00,14.4,11.5,30.02,NNE,31,7.0,10.0,88,0.00,,,0.00,meteohub,2013-02-04 11:01:00,
2013-02-04 05:06:00,14.2,11.3,30.02,ENE,67,7.0,10.0,88,0.00,,,0.00,meteohub,2013-02-04 11:06:00,
2013-02-04 05:11:00,14.4,11.5,30.01,ENE,62,3.0,10.0,88,0.00,,,0.00,meteohub,2013-02-04 11:11:00,
2013-02-04 05:16:00,14.5,11.7,30.01,NE,43,3.0,10.0,88,0.00,,,0.00,meteohub,2013-02-04 11:16:00,
2013-02-04 05:21:00,14.7,11.5,30.01,ENE,65,2.0,10.0,87,0.00,,,0.00,meteohub,2013-02-04 11:21:00,
2013-02-04 05:26:00,14.5,11.1,30.02,NE,51,8.0,10.0,86,0.00,,,0.00,meteohub,2013-02-04 11:26:00,
2013-02-04 05:32:00,14.4,11.1,30.01,East,84,7.0,11.0,87,0.00,,,0.00,meteohub,2013-02-04 11:32:00,
2013-02-04 05:37:00,14.4,11.1,30.01,ENE,77,4.0,11.0,87,0.00,,,0.00,meteohub,2013-02-04 11:37:00,
2013-02-04 05:42:00,14.5,11.3,30.01,East,80,5.0,11.0,87,0.00,,,0.00,meteohub,2013-02-04 11:42:00,
2013-02-04 05:47:00,14.7,11.5,30.01,NNW,341,2.0,9.0,87,0.00,,,0.00,meteohub,2013-02-04 11:47:00,
2013-02-04 05:52:00,14.7,11.5,30.01,NNW,345,2.0,9.0,87,0.00,,,0.00,meteohub,2013-02-04 11:52:00,
2013-02-04 05:57:00,14.7,11.3,30.01,NNE,31,4.0,8.0,86,0.00,,,0.00,meteohub,2013-02-04 11:57:00,
2013-02-04 06:02:00,14.4,11.1,30.01,North,358,5.0,9.0,87,0.00,,,0.00,meteohub,2013-02-04 12:02:00,
2013-02-04 06:07:00,14.2,10.9,30.02,NE,54,13.0,13.0,87,0.00,,,0.00,meteohub,2013-02-04 12:07:00,
2013-02-04 06:12:00,14.2,11.3,30.02,NE,36,7.0,15.0,88,0.00,,,0.00,meteohub,2013-02-04 12:12:00,
2013-02-04 06:17:00,14.2,11.3,30.02,NNE,24,7.0,15.0,88,0.00,,,0.00,meteohub,2013-02-04 12:17:00,
2013-02-04 06:22:00,13.8,10.8,30.02,North,359,3.0,15.0,87,0.00,,,0.00,meteohub,2013-02-04 12:22:00,
2013-02-04 06:27:00,14.0,11.1,30.02,NNE,14,7.0,14.0,88,0.00,,,0.00,meteohub,2013-02-04 12:27:00,
2013-02-04 06:32:00,14.0,10.9,30.03,NE,49,5.0,14.0,87,0.00,,,0.00,meteohub,2013-02-04 12:32:00,
2013-02-04 06:37:00,14.0,10.9,30.03,NE,37,11.0,14.0,87,0.00,,,0.00,meteohub,2013-02-04 12:37:00,
2013-02-04 06:42:00,13.8,10.8,30.03,ENE,60,8.0,17.0,87,0.00,,,0.00,meteohub,2013-02-04 12:42:00,
2013-02-04 06:47:00,14.0,10.9,30.03,NE,54,10.0,17.0,87,0.00,,,0.00,meteohub,2013-02-04 12:47:00,
2013-02-04 06:52:00,13.8,10.8,30.03,NE,53,6.0,17.0,87,0.00,,,0.00,meteohub,2013-02-04 12:52:00,
2013-02-04 06:57:00,13.6,10.6,30.02,ENE,60,9.0,14.0,87,0.00,,,0.00,meteohub,2013-02-04 12:57:00,
2013-02-04 07:02:00,13.6,10.8,30.02,NE,54,8.0,13.0,88,0.00,,,0.00,meteohub,2013-02-04 13:02:00,
2013-02-04 07:07:00,13.8,10.9,30.02,NE,50,8.0,13.0,88,0.00,,,0.00,meteohub,2013-02-04 13:07:00,
2013-02-04 07:12:00,13.6,10.8,30.02,NNE,33,8.0,13.0,88,0.00,,,0.00,meteohub,2013-02-04 13:12:00,
2013-02-04 07:17:00,13.8,10.8,30.02,North,4,5.0,13.0,87,0.00,,,0.00,meteohub,2013-02-04 13:17:00,
2013-02-04 07:22:00,13.8,10.8,30.02,ENE,68,12.0,13.0,87,0.00,,,0.00,meteohub,2013-02-04 13:22:00,
2013-02-04 07:27:00,13.6,10.6,30.02,NNW,331,6.0,16.0,87,0.00,,,0.00,meteohub,2013-02-04 13:27:00,
2013-02-04 07:32:00,13.6,10.2,30.03,NE,51,11.0,16.0,86,0.00,,,0.00,meteohub,2013-02-04 13:32:00,
2013-02-04 07:37:00,13.6,10.6,30.03,ENE,62,8.0,15.0,87,0.00,,,0.00,meteohub,2013-02-04 13:37:00,
2013-02-04 07:42:00,13.6,10.2,30.03,NE,40,10.0,14.0,86,0.00,,,0.00,meteohub,2013-02-04 13:42:00,
2013-02-04 07:47:00,13.6,10.6,30.03,NE,49,9.0,14.0,87,0.00,,,0.00,meteohub,2013-02-04 13:47:00,
2013-02-04 07:52:00,13.6,10.6,30.04,NNE,14,5.0,14.0,87,0.00,,,0.00,meteohub,2013-02-04 13:52:00,
2013-02-04 07:57:00,13.6,10.6,30.04,ENE,70,9.0,14.0,87,0.00,,,0.00,meteohub,2013-02-04 13:57:00,
2013-02-04 08:02:00,13.5,10.0,30.04,NE,48,7.0,13.0,86,0.00,,,0.00,meteohub,2013-02-04 14:02:00,
2013-02-04 08:07:00,13.6,10.6,30.04,East,79,7.0,13.0,87,0.00,,,0.00,meteohub,2013-02-04 14:07:00,
2013-02-04 08:12:00,13.6,10.6,30.04,NE,47,7.0,13.0,87,0.00,,,0.00,meteohub,2013-02-04 14:12:00,
2013-02-04 08:17:00,13.5,10.0,30.04,NE,41,3.0,12.0,86,0.00,,,0.00,meteohub,2013-02-04 14:17:00,
2013-02-04 08:22:00,13.5,10.4,30.04,NE,55,7.0,12.0,87,0.00,,,0.00,meteohub,2013-02-04 14:22:00,
2013-02-04 08:27:00,13.5,10.0,30.05,NE,46,10.0,12.0,86,0.00,,,0.00,meteohub,2013-02-04 14:27:00,
2013-02-04 08:32:00,13.5,10.0,30.04,NE,49,5.0,11.0,86,0.00,,,0.00,meteohub,2013-02-04 14:32:00,
2013-02-04 08:37:00,13.5,10.0,30.04,NNE,33,5.0,11.0,86,0.00,,,0.00,meteohub,2013-02-04 14:37:00,
2013-02-04 08:42:00,13.5,10.0,30.04,ENE,60,7.0,11.0,86,0.00,,,0.00,meteohub,2013-02-04 14:42:00,
2013-02-04 08:47:00,13.5,9.9,30.04,NNE,23,5.0,11.0,85,0.00,,,0.00,meteohub,2013-02-04 14:47:00,
2013-02-04 08:52:00,13.5,9.9,30.04,NE,43,5.0,11.0,85,0.00,,,0.00,meteohub,2013-02-04 14:52:00,
2013-02-04 08:57:00,13.6,10.0,30.04,ENE,60,4.0,11.0,85,0.00,,,0.00,meteohub,2013-02-04 14:57:00,
2013-02-04 09:02:00,14.0,10.4,30.04,North,6,6.0,11.0,85,0.00,,,0.00,meteohub,2013-02-04 15:02:00,
2013-02-04 09:07:00,13.8,10.2,30.04,NE,56,8.0,11.0,85,0.00,,,0.00,meteohub,2013-02-04 15:07:00,
2013-02-04 09:12:00,14.2,10.6,30.04,NNE,17,10.0,12.0,85,0.00,,,0.00,meteohub,2013-02-04 15:12:00,
2013-02-04 09:17:00,14.4,10.8,30.04,NNE,30,4.0,14.0,85,0.00,,,0.00,meteohub,2013-02-04 15:17:00,
2013-02-04 09:22:00,14.4,10.4,30.04,ENE,60,4.0,14.0,84,0.00,,,0.00,meteohub,2013-02-04 15:22:00,
2013-02-04 09:27:00,14.2,10.2,30.05,North,355,5.0,14.0,84,0.00,,,0.00,meteohub,2013-02-04 15:27:00,
2013-02-04 09:32:00,14.4,10.8,30.05,NW,325,2.0,11.0,85,0.00,,,0.00,meteohub,2013-02-04 15:32:00,
2013-02-04 09:37:00,14.4,10.4,30.05,ENE,57,2.0,11.0,84,0.00,,,0.00,meteohub,2013-02-04 15:37:00,
2013-02-04 09:42:00,14.4,10.4,30.05,NNW,339,7.0,11.0,84,0.00,,,0.00,meteohub,2013-02-04 15:42:00,
2013-02-04 09:47:00,14.4,10.4,30.05,NE,49,7.0,9.0,84,0.00,,,0.00,meteohub,2013-02-04 15:47:00,
2013-02-04 09:52:00,14.2,10.0,30.05,NE,51,6.0,11.0,83,0.00,,,0.00,meteohub,2013-02-04 15:52:00,
2013-02-04 09:57:00,14.4,10.2,30.05,NNE,29,5.0,12.0,83,0.00,,,0.00,meteohub,2013-02-04 15:57:00,
2013-02-04 10:02:00,14.2,9.7,30.05,East,84,6.0,12.0,82,0.00,,,0.00,meteohub,2013-02-04 16:02:00,
2013-02-04 10:07:00,14.2,10.0,30.05,NNE,22,7.0,12.0,83,0.00,,,0.00,meteohub,2013-02-04 16:07:00,
2013-02-04 10:12:00,14.4,10.2,30.05,NNE,28,6.0,11.0,83,0.00,,,0.00,meteohub,2013-02-04 16:12:00,
2013-02-04 10:17:00,14.4,10.2,30.05,NNE,33,7.0,11.0,83,0.00,,,0.00,meteohub,2013-02-04 16:17:00,
2013-02-04 10:22:00,14.5,10.0,30.05,NE,39,7.0,13.0,82,0.00,,,0.00,meteohub,2013-02-04 16:22:00,
2013-02-04 10:27:00,14.5,10.4,30.05,NNE,29,4.0,13.0,83,0.00,,,0.00,meteohub,2013-02-04 16:27:00,
2013-02-04 10:32:00,14.4,9.9,30.05,NNW,333,6.0,13.0,82,0.00,,,0.00,meteohub,2013-02-04 16:32:00,
2013-02-04 10:37:00,14.4,9.9,30.06,NNE,19,4.0,13.0,82,0.00,,,0.00,meteohub,2013-02-04 16:37:00,
2013-02-04 10:42:00,14.4,9.9,30.05,NNE,17,10.0,13.0,82,0.00,,,0.00,meteohub,2013-02-04 16:42:00,
2013-02-04 10:47:00,14.5,9.9,30.06,NE,39,6.0,13.0,81,0.00,,,0.00,meteohub,2013-02-04 16:47:00,
2013-02-04 10:52:00,14.5,10.0,30.06,NNE,18,4.0,13.0,82,0.00,,,0.00,meteohub,2013-02-04 16:52:00,
2013-02-04 10:57:00,14.9,10.4,30.06,North,0,4.0,11.0,82,0.00,,,0.00,meteohub,2013-02-04 16:57:00,
2013-02-04 11:02:00,14.7,10.0,30.06,North,351,4.0,13.0,81,0.00,,,0.00,meteohub,2013-02-04 17:02:00,
2013-02-04 11:07:00,14.5,10.0,30.06,NNE,20,7.0,13.0,82,0.00,,,0.00,meteohub,2013-02-04 17:07:00,
2013-02-04 11:12:00,14.9,10.2,30.06,North,354,3.0,13.0,81,0.00,,,0.00,meteohub,2013-02-04 17:12:00,
2013-02-04 11:17:00,14.7,9.7,30.06,NW,312,3.0,11.0,80,0.00,,,0.00,meteohub,2013-02-04 17:17:00,
2013-02-04 11:22:00,14.9,10.2,30.06,NNE,12,10.0,14.0,81,0.00,,,0.00,meteohub,2013-02-04 17:22:00,
2013-02-04 11:27:00,14.7,9.7,30.06,NNW,337,6.0,14.0,80,0.00,,,0.00,meteohub,2013-02-04 17:27:00,
2013-02-04 11:32:00,14.5,9.9,30.06,NNW,341,8.0,14.0,81,0.00,,,0.00,meteohub,2013-02-04 17:32:00,
2013-02-04 11:37:00,14.7,10.0,30.06,NW,325,8.0,13.0,81,0.00,,,0.00,meteohub,2013-02-04 17:37:00,
2013-02-04 11:42:00,14.7,9.7,30.06,NW,325,8.0,13.0,80,0.00,,,0.00,meteohub,2013-02-04 17:42:00,
2013-02-04 11:47:00,14.7,10.0,30.06,NE,35,5.0,13.0,81,0.00,,,0.00,meteohub,2013-02-04 17:47:00,
2013-02-04 11:52:00,15.3,10.2,30.06,North,2,2.0,13.0,80,0.00,,,0.00,meteohub,2013-02-04 17:52:00,
2013-02-04 11:57:00,15.4,10.0,30.06,North,11,10.0,11.0,79,0.00,,,0.00,meteohub,2013-02-04 17:57:00,
2013-02-04 12:02:00,15.4,10.0,30.06,North,355,7.0,14.0,79,0.00,,,0.00,meteohub,2013-02-04 18:02:00,
2013-02-04 12:07:00,15.8,10.2,30.06,NNW,341,5.0,14.0,78,0.00,,,0.00,meteohub,2013-02-04 18:07:00,
2013-02-04 12:12:00,16.0,10.4,30.06,North,10,5.0,14.0,78,0.00,,,0.00,meteohub,2013-02-04 18:12:00,
2013-02-04 12:17:00,15.6,9.7,30.06,North,11,8.0,10.0,77,0.00,,,0.00,meteohub,2013-02-04 18:17:00,
2013-02-04 12:22:00,15.8,9.5,30.06,North,353,7.0,11.0,76,0.00,,,0.00,meteohub,2013-02-04 18:22:00,
2013-02-04 12:27:00,15.8,9.5,30.06,North,0,3.0,11.0,76,0.00,,,0.00,meteohub,2013-02-04 18:27:00,
2013-02-04 12:32:00,15.8,9.9,30.06,NNW,327,6.0,12.0,77,0.00,,,0.00,meteohub,2013-02-04 18:32:00,
2013-02-04 12:37:00,15.6,9.5,30.06,NNW,330,5.0,12.0,76,0.00,,,0.00,meteohub,2013-02-04 18:37:00,
2013-02-04 12:42:00,15.6,9.5,30.06,NNE,23,7.0,11.0,76,0.00,,,0.00,meteohub,2013-02-04 18:42:00,
2013-02-04 12:47:00,15.8,9.5,30.06,NW,308,6.0,11.0,76,0.00,,,0.00,meteohub,2013-02-04 18:47:00,
2013-02-04 12:52:00,15.3,8.4,30.07,West,281,9.0,11.0,74,0.00,,,0.00,meteohub,2013-02-04 18:52:00,
2013-02-04 12:57:00,15.1,8.6,30.06,North,355,6.0,15.0,75,0.00,,,0.00,meteohub,2013-02-04 18:57:00,
2013-02-04 13:02:00,15.3,8.4,30.06,NNW,340,3.0,15.0,74,0.00,,,0.00,meteohub,2013-02-04 19:02:00,
2013-02-04 13:07:00,15.3,8.2,30.06,NNE,12,6.0,14.0,73,0.00,,,0.00,meteohub,2013-02-04 19:07:00,
2013-02-04 13:12:00,14.7,7.9,30.07,NW,305,12.0,15.0,74,0.00,,,0.00,meteohub,2013-02-04 19:12:00,
2013-02-04 13:17:00,14.5,7.5,30.07,NNW,333,8.0,15.0,73,0.00,,,0.00,meteohub,2013-02-04 19:17:00,
2013-02-04 13:22:00,14.7,7.7,30.07,NNE,20,7.0,15.0,73,0.00,,,0.00,meteohub,2013-02-04 19:22:00,
2013-02-04 13:27:00,15.1,8.1,30.06,NNW,327,5.0,15.0,73,0.00,,,0.00,meteohub,2013-02-04 19:27:00,
2013-02-04 13:32:00,15.4,8.1,30.06,North,3,4.0,15.0,72,0.00,,,0.00,meteohub,2013-02-04 19:32:00,
2013-02-04 13:37:00,15.6,7.9,30.06,WNW,297,8.0,14.0,71,0.00,,,0.00,meteohub,2013-02-04 19:37:00,
2013-02-04 13:42:00,16.0,7.9,30.05,NNE,14,3.0,11.0,70,0.00,,,0.00,meteohub,2013-02-04 19:42:00,
2013-02-04 13:47:00,15.6,7.5,30.04,WNW,291,4.0,11.0,70,0.00,,,0.00,meteohub,2013-02-04 19:47:00,
2013-02-04 13:52:00,15.6,7.9,30.04,NW,326,3.0,11.0,71,0.00,,,0.00,meteohub,2013-02-04 19:52:00,
2013-02-04 13:57:00,15.8,8.1,30.04,North,357,4.0,11.0,71,0.00,,,0.00,meteohub,2013-02-04 19:57:00,
2013-02-04 14:02:00,16.2,8.1,30.04,West,280,7.0,11.0,70,0.00,,,0.00,meteohub,2013-02-04 20:02:00,
2013-02-04 14:07:00,16.3,8.2,30.03,NE,48,8.0,11.0,70,0.00,,,0.00,meteohub,2013-02-04 20:07:00,
2013-02-04 14:12:00,16.3,7.9,30.04,NNE,30,5.0,9.0,69,0.00,,,0.00,meteohub,2013-02-04 20:12:00,
2013-02-04 14:17:00,16.3,8.2,30.04,NE,47,5.0,9.0,70,0.00,,,0.00,meteohub,2013-02-04 20:17:00,
2013-02-04 14:22:00,16.5,8.1,30.03,NW,325,5.0,9.0,69,0.00,,,0.00,meteohub,2013-02-04 20:22:00,
2013-02-04 14:27:00,16.5,8.1,30.03,NW,305,7.0,12.0,69,0.00,,,0.00,meteohub,2013-02-04 20:27:00,
2013-02-04 14:32:00,16.5,8.1,30.03,North,355,3.0,12.0,69,0.00,,,0.00,meteohub,2013-02-04 20:32:00,
2013-02-04 14:37:00,16.9,8.8,30.03,NE,45,3.0,12.0,70,0.00,,,0.00,meteohub,2013-02-04 20:37:00,
2013-02-04 14:42:00,16.5,7.9,30.03,ENE,64,6.0,10.0,68,0.00,,,0.00,meteohub,2013-02-04 20:42:00,
2013-02-04 14:47:00,16.5,8.1,30.04,NNW,330,3.0,9.0,69,0.00,,,0.00,meteohub,2013-02-04 20:47:00,
2013-02-04 14:52:00,16.9,8.4,30.04,NNE,29,4.0,11.0,69,0.00,,,0.00,meteohub,2013-02-04 20:52:00,
2013-02-04 14:57:00,16.7,7.7,30.04,ENE,76,4.0,11.0,67,0.00,,,0.00,meteohub,2013-02-04 20:57:00,
2013-02-04 15:02:00,16.3,7.7,30.04,ENE,60,4.0,11.0,68,0.00,,,0.00,meteohub,2013-02-04 21:02:00,
2013-02-04 15:07:00,16.7,8.1,30.04,North,355,6.0,9.0,68,0.00,,,0.00,meteohub,2013-02-04 21:07:00,
2013-02-04 15:12:00,16.5,7.5,30.04,NE,34,4.0,9.0,67,0.00,,,0.00,meteohub,2013-02-04 21:12:00,
2013-02-04 15:17:00,16.5,7.5,30.04,North,10,3.0,9.0,67,0.00,,,0.00,meteohub,2013-02-04 21:17:00,
2013-02-04 15:22:00,16.9,8.2,30.04,NNE,20,4.0,9.0,68,0.00,,,0.00,meteohub,2013-02-04 21:22:00,
2013-02-04 15:27:00,16.5,7.5,30.04,NE,34,2.0,9.0,67,0.00,,,0.00,meteohub,2013-02-04 21:27:00,
2013-02-04 15:32:00,16.7,7.7,30.04,North,355,4.0,9.0,67,0.00,,,0.00,meteohub,2013-02-04 21:32:00,
2013-02-04 15:37:00,16.9,7.5,30.04,NE,39,4.0,7.0,66,0.00,,,0.00,meteohub,2013-02-04 21:37:00,
2013-02-04 15:42:00,16.9,7.5,30.04,North,10,0.0,7.0,66,0.00,,,0.00,meteohub,2013-02-04 21:42:00,
2013-02-04 15:48:00,16.9,7.5,30.04,NNE,31,3.0,7.0,66,0.00,,,0.00,meteohub,2013-02-04 21:48:00,
2013-02-04 15:53:00,16.5,7.2,30.04,ENE,77,1.0,6.0,66,0.00,,,0.00,meteohub,2013-02-04 21:53:00,
2013-02-04 15:58:00,16.5,7.2,30.04,NE,41,4.0,7.0,66,0.00,,,0.00,meteohub,2013-02-04 21:58:00,
2013-02-04 16:03:00,16.2,6.8,30.04,NE,51,5.0,8.0,66,0.00,,,0.00,meteohub,2013-02-04 22:03:00,
2013-02-04 16:08:00,16.5,6.8,30.04,NW,318,1.0,8.0,65,0.00,,,0.00,meteohub,2013-02-04 22:08:00,
2013-02-04 16:13:00,16.9,7.2,30.04,ENE,65,5.0,7.0,65,0.00,,,0.00,meteohub,2013-02-04 22:13:00,
2013-02-04 16:18:00,16.7,6.6,30.04,NNW,333,3.0,7.0,64,0.00,,,0.00,meteohub,2013-02-04 22:18:00,
2013-02-04 16:23:00,16.2,6.1,30.05,NW,326,5.0,7.0,64,0.00,,,0.00,meteohub,2013-02-04 22:23:00,
2013-02-04 16:28:00,16.0,6.3,30.04,NNW,335,5.0,8.0,65,0.00,,,0.00,meteohub,2013-02-04 22:28:00,
2013-02-04 16:34:00,16.0,6.3,30.04,NNW,332,4.0,8.0,65,0.00,,,0.00,meteohub,2013-02-04 22:34:00,
2013-02-04 16:39:00,16.0,6.6,30.04,ENE,74,6.0,8.0,66,0.00,,,0.00,meteohub,2013-02-04 22:39:00,
2013-02-04 16:44:00,15.8,6.4,30.04,NNW,346,2.0,6.0,66,0.00,,,0.00,meteohub,2013-02-04 22:44:00,
2013-02-04 16:49:00,16.0,6.3,30.04,ENE,62,3.0,6.0,65,0.00,,,0.00,meteohub,2013-02-04 22:49:00,
2013-02-04 16:54:00,15.4,6.1,30.04,ENE,69,4.0,6.0,66,0.00,,,0.00,meteohub,2013-02-04 22:54:00,
2013-02-04 16:59:00,15.4,6.1,30.04,ENE,60,1.0,5.0,66,0.00,,,0.00,meteohub,2013-02-04 22:59:00,
2013-02-04 17:04:00,15.3,5.9,30.04,NE,56,2.0,4.0,66,0.00,,,0.00,meteohub,2013-02-04 23:04:00,
2013-02-04 17:09:00,15.4,6.1,30.04,NE,50,2.0,4.0,66,0.00,,,0.00,meteohub,2013-02-04 23:09:00,
2013-02-04 17:14:00,15.4,6.4,30.05,NW,317,4.0,4.0,67,0.00,,,0.00,meteohub,2013-02-04 23:14:00,
2013-02-04 17:20:00,15.3,5.9,30.05,NW,320,3.0,4.0,66,0.00,,,0.00,meteohub,2013-02-04 23:20:00,
2013-02-04 17:25:00,15.3,5.9,30.05,NW,323,2.0,5.0,66,0.00,,,0.00,meteohub,2013-02-04 23:25:00,
2013-02-04 17:30:00,15.3,6.3,30.05,NW,322,2.0,5.0,67,0.00,,,0.00,meteohub,2013-02-04 23:30:00,
2013-02-04 17:35:00,15.3,6.3,30.05,NW,321,1.0,4.0,67,0.00,,,0.00,meteohub,2013-02-04 23:35:00,
2013-02-04 17:40:00,15.3,6.3,30.06,NW,321,0.0,4.0,67,0.00,,,0.00,meteohub,2013-02-04 23:40:00,
2013-02-04 17:45:00,15.3,7.2,30.06,NW,321,0.0,3.0,70,0.00,,,0.00,meteohub,2013-02-04 23:45:00,
2013-02-04 17:50:00,15.4,7.3,30.05,West,261,2.0,2.0,70,0.00,,,0.00,meteohub,2013-02-04 23:50:00,
2013-02-04 17:55:00,15.4,7.7,30.05,SW,236,0.0,3.0,71,0.00,,,0.00,meteohub,2013-02-04 23:55:00,
2013-02-04 18:00:00,15.4,7.2,30.04,SSW,212,0.0,3.0,69,0.00,,,0.00,meteohub,2013-02-05 00:00:00,
2013-02-04 18:05:00,15.6,7.5,30.04,SSW,210,1.0,3.0,70,0.00,,,0.00,meteohub,2013-02-05 00:05:00,
2013-02-04 18:10:00,16.0,7.9,30.04,SSE,152,2.0,3.0,70,0.00,,,0.00,meteohub,2013-02-05 00:10:00,
2013-02-04 18:16:00,16.0,7.3,30.04,South,177,2.0,3.0,68,0.00,,,0.00,meteohub,2013-02-05 00:16:00,
2013-02-04 18:21:00,15.6,7.3,30.04,South,170,0.0,3.0,69,0.00,,,0.00,meteohub,2013-02-05 00:21:00,
2013-02-04 18:26:00,15.8,8.1,30.04,South,171,1.0,3.0,71,0.00,,,0.00,meteohub,2013-02-05 00:26:00,
2013-02-04 18:31:00,16.0,8.2,30.05,South,187,1.0,3.0,71,0.00,,,0.00,meteohub,2013-02-05 00:31:00,
2013-02-04 18:36:00,16.0,7.9,30.05,SSE,164,2.0,2.0,70,0.00,,,0.00,meteohub,2013-02-05 00:36:00,
2013-02-04 18:41:00,16.0,7.7,30.05,SSE,168,2.0,4.0,69,0.00,,,0.00,meteohub,2013-02-05 00:41:00,
2013-02-04 18:46:00,15.4,7.2,30.05,SSW,209,2.0,4.0,69,0.00,,,0.00,meteohub,2013-02-05 00:46:00,
2013-02-04 18:51:00,15.1,7.3,30.06,South,187,1.0,4.0,71,0.00,,,0.00,meteohub,2013-02-05 00:51:00,
2013-02-04 18:56:00,14.7,6.8,30.06,SSW,208,4.0,4.0,70,0.00,,,0.00,meteohub,2013-02-05 00:56:00,
2013-02-04 19:02:00,14.4,6.4,30.06,SSW,195,3.0,5.0,70,0.00,,,0.00,meteohub,2013-02-05 01:02:00,
2013-02-04 19:07:00,14.2,6.8,30.06,SSW,197,1.0,5.0,72,0.00,,,0.00,meteohub,2013-02-05 01:07:00,
2013-02-04 19:12:00,14.4,7.0,30.07,SSW,195,0.0,5.0,72,0.00,,,0.00,meteohub,2013-02-05 01:12:00,
2013-02-04 19:17:00,14.4,6.4,30.07,SSW,199,0.0,5.0,70,0.00,,,0.00,meteohub,2013-02-05 01:17:00,
2013-02-04 19:22:00,14.4,7.3,30.07,SSW,199,0.0,3.0,73,0.00,,,0.00,meteohub,2013-02-05 01:22:00,
2013-02-04 19:27:00,14.5,7.2,30.07,SSW,196,2.0,3.0,72,0.00,,,0.00,meteohub,2013-02-05 01:27:00,
2013-02-04 19:32:00,14.5,6.8,30.07,SSW,195,3.0,3.0,71,0.00,,,0.00,meteohub,2013-02-05 01:32:00,
2013-02-04 19:37:00,14.5,6.8,30.07,SSW,195,2.0,3.0,71,0.00,,,0.00,meteohub,2013-02-05 01:37:00,
2013-02-04 19:42:00,14.4,6.6,30.07,South,191,3.0,4.0,71,0.00,,,0.00,meteohub,2013-02-05 01:42:00,
2013-02-04 19:47:00,14.2,6.8,30.06,SSW,195,1.0,4.0,72,0.00,,,0.00,meteohub,2013-02-05 01:47:00,
2013-02-04 19:52:00,14.4,7.0,30.06,SSE,168,2.0,4.0,72,0.00,,,0.00,meteohub,2013-02-05 01:52:00,
2013-02-04 19:57:00,14.7,7.3,30.06,SE,145,2.0,4.0,72,0.00,,,0.00,meteohub,2013-02-05 01:57:00,
2013-02-04 20:02:00,14.9,7.5,30.06,SSE,155,3.0,5.0,72,0.00,,,0.00,meteohub,2013-02-05 02:02:00,
2013-02-04 20:07:00,14.9,7.5,30.06,South,170,3.0,5.0,72,0.00,,,0.00,meteohub,2013-02-05 02:07:00,
2013-02-04 20:12:00,15.1,8.1,30.06,SSE,151,2.0,5.0,73,0.00,,,0.00,meteohub,2013-02-05 02:12:00,
2013-02-04 20:17:00,15.3,7.9,30.06,SSE,158,4.0,5.0,72,0.00,,,0.00,meteohub,2013-02-05 02:17:00,
2013-02-04 20:22:00,14.5,7.2,30.06,SSE,153,3.0,5.0,72,0.00,,,0.00,meteohub,2013-02-05 02:22:00,
2013-02-04 20:27:00,14.5,7.2,30.06,SSW,193,2.0,5.0,72,0.00,,,0.00,meteohub,2013-02-05 02:27:00,
2013-02-04 20:32:00,14.4,7.3,30.06,SSW,193,2.0,5.0,73,0.00,,,0.00,meteohub,2013-02-05 02:32:00,
2013-02-04 20:38:00,14.2,7.2,30.06,SSW,206,1.0,5.0,73,0.00,,,0.00,meteohub,2013-02-05 02:38:00,
2013-02-04 20:43:00,14.5,7.7,30.06,South,173,1.0,5.0,74,0.00,,,0.00,meteohub,2013-02-05 02:43:00,
2013-02-04 20:48:00,15.1,8.1,30.07,SSE,153,2.0,4.0,73,0.00,,,0.00,meteohub,2013-02-05 02:48:00,
2013-02-04 20:53:00,15.1,7.7,30.06,SSE,164,1.0,4.0,72,0.00,,,0.00,meteohub,2013-02-05 02:53:00,
2013-02-04 20:58:00,14.7,7.7,30.06,South,177,2.0,4.0,73,0.00,,,0.00,meteohub,2013-02-05 02:58:00,
2013-02-04 21:03:00,14.7,7.7,30.06,SSE,155,2.0,4.0,73,0.00,,,0.00,meteohub,2013-02-05 03:03:00,
2013-02-04 21:08:00,14.5,7.7,30.06,SSE,151,2.0,4.0,74,0.00,,,0.00,meteohub,2013-02-05 03:08:00,
2013-02-04 21:13:00,14.5,7.7,30.06,SSE,163,2.0,4.0,74,0.00,,,0.00,meteohub,2013-02-05 03:13:00,
2013-02-04 21:19:00,14.5,7.5,30.06,South,169,2.0,4.0,73,0.00,,,0.00,meteohub,2013-02-05 03:19:00,
2013-02-04 21:24:00,14.5,7.5,30.06,SSE,158,2.0,4.0,73,0.00,,,0.00,meteohub,2013-02-05 03:24:00,
2013-02-04 21:29:00,14.5,7.5,30.06,South,177,3.0,4.0,73,0.00,,,0.00,meteohub,2013-02-05 03:29:00,
2013-02-04 21:34:00,14.0,7.0,30.06,South,170,0.0,4.0,73,0.00,,,0.00,meteohub,2013-02-05 03:34:00,
2013-02-04 21:39:00,13.6,6.6,30.06,SSE,168,1.0,4.0,73,0.00,,,0.00,meteohub,2013-02-05 03:39:00,
2013-02-04 21:44:00,13.8,7.2,30.05,SSE,151,1.0,4.0,74,0.00,,,0.00,meteohub,2013-02-05 03:44:00,
2013-02-04 21:49:00,13.8,6.8,30.05,South,177,3.0,3.0,73,0.00,,,0.00,meteohub,2013-02-05 03:49:00,
2013-02-04 21:54:00,12.9,6.3,30.06,SSW,192,3.0,4.0,74,0.00,,,0.00,meteohub,2013-02-05 03:54:00,
2013-02-04 21:59:00,12.6,6.1,30.05,South,187,3.0,4.0,75,0.00,,,0.00,meteohub,2013-02-05 03:59:00,
2013-02-04 22:05:00,12.6,6.4,30.05,South,171,2.0,6.0,76,0.00,,,0.00,meteohub,2013-02-05 04:05:00,
2013-02-04 22:10:00,12.9,7.2,30.05,SSW,197,1.0,6.0,77,0.00,,,0.00,meteohub,2013-02-05 04:10:00,
2013-02-04 22:15:00,13.1,7.0,30.05,SSW,195,1.0,5.0,76,0.00,,,0.00,meteohub,2013-02-05 04:15:00,
2013-02-04 22:20:00,13.1,7.0,30.05,SW,216,1.0,4.0,76,0.00,,,0.00,meteohub,2013-02-05 04:20:00,
2013-02-04 22:25:00,12.9,6.8,30.05,South,182,1.0,4.0,76,0.00,,,0.00,meteohub,2013-02-05 04:25:00,
2013-02-04 22:30:00,12.7,6.6,30.04,South,187,3.0,5.0,76,0.00,,,0.00,meteohub,2013-02-05 04:30:00,
2013-02-04 22:35:00,12.7,7.0,30.04,SSW,204,1.0,5.0,77,0.00,,,0.00,meteohub,2013-02-05 04:35:00,
2013-02-04 22:40:00,12.6,6.8,30.03,SSW,193,2.0,7.0,77,0.00,,,0.00,meteohub,2013-02-05 04:40:00,
2013-02-04 22:46:00,12.6,6.8,30.03,South,191,5.0,7.0,77,0.00,,,0.00,meteohub,2013-02-05 04:46:00,
2013-02-04 22:51:00,12.2,6.4,30.03,SSW,201,1.0,7.0,77,0.00,,,0.00,meteohub,2013-02-05 04:51:00,
2013-02-04 22:56:00,12.2,6.4,30.03,SSW,203,4.0,6.0,77,0.00,,,0.00,meteohub,2013-02-05 04:56:00,
2013-02-04 23:00:00,12.2,6.4,30.03,SSE,163,4.0,6.0,77,0.00,,,0.00,meteohub,2013-02-05 05:00:00,
2013-02-04 23:01:00,12.4,6.6,30.03,South,187,2.0,6.0,77,0.00,,,0.00,meteohub,2013-02-05 05:01:00,
2013-02-04 23:04:00,12.4,6.6,30.03,SSE,168,3.0,6.0,77,0.00,,,0.00,meteohub,2013-02-05 05:04:00,
2013-02-04 23:09:00,12.6,6.8,30.03,South,172,3.0,6.0,77,0.00,,,0.00,meteohub,2013-02-05 05:09:00,
2013-02-04 23:14:00,12.7,6.6,30.03,South,172,4.0,8.0,76,0.00,,,0.00,meteohub,2013-02-05 05:14:00,
2013-02-04 23:19:00,12.7,6.6,30.03,SSW,206,2.0,8.0,76,0.00,,,0.00,meteohub,2013-02-05 05:19:00,
2013-02-04 23:24:00,12.6,6.1,30.03,South,187,5.0,8.0,75,0.00,,,0.00,meteohub,2013-02-05 05:24:00,
2013-02-04 23:30:00,12.6,6.4,30.03,South,177,1.0,6.0,76,0.00,,,0.00,meteohub,2013-02-05 05:30:00,
2013-02-04 23:35:00,12.7,6.6,30.02,SSW,192,1.0,6.0,76,0.00,,,0.00,meteohub,2013-02-05 05:35:00,
2013-02-04 23:40:00,12.7,6.6,30.02,SSE,159,3.0,5.0,76,0.00,,,0.00,meteohub,2013-02-05 05:40:00,
2013-02-04 23:45:00,12.7,6.6,30.02,SSE,153,2.0,5.0,76,0.00,,,0.00,meteohub,2013-02-05 05:45:00,
2013-02-04 23:50:00,12.6,6.4,30.02,SSW,201,3.0,6.0,76,0.00,,,0.00,meteohub,2013-02-05 05:50:00,
2013-02-04 23:55:00,12.4,6.3,30.02,SSW,193,3.0,6.0,76,0.00,,,0.00,meteohub,2013-02-05 05:55:00,